KAQW/AQW METAR and TAF weather

Enter ICAO airport designator
Station Type Date Time Source
KAQW METAR 2020/06/05 08:52 UTC NOAA

KAQW 050852Z AUTO 00000KT 10SM BKN120 18/14 A2988 RMK AO2 SLP114 T01830144 51005


Station Type Date Time Source
KAQW Decoded METAR 2020/06/05 08:52 UTC NOAA

N ADAMS HARRIMAN-AND-WEST, MA, United States (KAQW) 42-42N 073-10W 201M
Jun 05, 2020 - 04:52 AM EDT / 2020.06.05 0852 UTC
Wind: Calm:0
Visibility: 10 mile(s):0
Sky conditions: mostly cloudy
Temperature: 64.9 F (18.3 C)
Dew Point: 57.9 F (14.4 C)
Relative Humidity: 77%
Pressure (altimeter): 29.88 in. Hg (1011 hPa)
Pressure tendency: 0.01 inches (0.5 hPa) higher than three hours ago
ob: KAQW 050852Z AUTO 00000KT 10SM BKN120 18/14 A2988 RMK AO2 SLP114 T01830144 51005
cycle: 9

Station Type Date Time Source
KAQW TAF UTC NOAA

Error!

Example: see airport list